Aérodrome :
LOGIN :

S'inscrire | Disclaimer

   EN    FR    IT 

 










Légende :    VFR   VFR Marginal   IFR   IFR Intensif   IFR Très Intensif
Visi : 
Plafond : 
>= 8 km
>= 3000ft
5 à 8 km
1000 à 3000 ft
1500m à 5 km
500 à 1000 ft
800 à 1500m
200 à 500 ft
< 800m
< 200 ft
Symboles :   Orages  Brouillard  Fortes neiges  Fortes précipitations  Vent > 20 kt
SIGMETs :   Divers  Orages  Givrage  Turbulence  Onde Orograph.  Cendres Volcan.






- Altitude de l'aérodrome : 49 ft
- Code IATA : SEN


EGMC - Southend

DERNIER METAR :
  • 121350Z 16017KT 7000 -SHRA BKN007 07/06 Q0986

METARs EXPIRÉS :
  • 121320Z 17019KT 9999 BKN008 07/06 Q0986
  • 121250Z 16019KT 9999 BKN007 07/06 Q0987
  • 121220Z 16017KT 9999 -RA BKN008 07/06 Q0988
  • 121150Z 16016KT 9999 BKN012 07/05 Q0990
  • 121120Z 16016KT 9999 -SHRA SCT015 BKN019 07/05 Q0991

TAF TAF EGMC
Valide du 12 à 12h jusqu'au 12 à 21h UTC


121058Z 1212/1221 16015KT 9999 BKN025
TEMPO 1212/1218 15018G28KT 8000 RA BKN012
PROB30
TEMPO 1212/1218 4000 RADZ BKN009
BECMG 1217/1219 22009KT
PROB30
TEMPO 1218/1220 8000 RA BKN012



MET'MAP, la Météo Aéronautique d'un coup d'oeil ! - Copyright ORBIFLY Décembre 2007 - Disclaimer

ORBIFLY MET'MAP TEAM :

Programmation & Développement : Alexandra Zaïnal
Sur une idée originale de : Baudouin d'Aumeries
Assistance à la programmation : Marc-Olivier Méhu
Soutien technique & logistique : Manuel Goepfert

Contact : metmap@orbifly.com




SOURCES & CREDITS :

   NOAA